AAL1120 KABQ-KTUL
Flight info
| Callsign | AAL1120 |
|---|---|
| Flight time | 1h 35m |
| Altitude | 37000 |
| Route | FTI |
| Aircraft | B738/M-SDE2E3FGHIRWXY/LB1 |
Departure
| Time | 2026-04-20 23:26 |
|---|---|
| Airport | Albuquerque International Sunport (KABQ) |
Arrival
| Time | 2026-04-21 01:01 |
|---|---|
| Airport | Tulsa International Airport (KTUL) |
| Time | Latitude | Longitude | Altitude | Speed | Heading |
|---|---|---|---|---|---|
| 2026-04-20 23:07 | 35.04693 | -106.61448 | 5338 ft | 0 kts | 343° |
| 2026-04-20 23:13 | 35.04680 | -106.61444 | 5338 ft | 2 kts | 351° |
| 2026-04-20 23:13 | 35.04672 | -106.61443 | 5338 ft | 0 kts | 347° |
| 2026-04-20 23:14 | 35.04659 | -106.61439 | 5338 ft | 2 kts | 347° |
| 2026-04-20 23:14 | 35.04644 | -106.61435 | 5338 ft | 1 kts | 347° |
| 2026-04-20 23:15 | 35.04639 | -106.61434 | 5338 ft | 0 kts | 319° |
| 2026-04-20 23:15 | 35.04636 | -106.61430 | 5338 ft | 0 kts | 274° |
| 2026-04-20 23:15 | 35.04636 | -106.61421 | 5338 ft | 1 kts | 270° |
| 2026-04-20 23:17 | 35.04636 | -106.61423 | 5338 ft | 0 kts | 270° |
| 2026-04-20 23:17 | 35.04631 | -106.61462 | 5337 ft | 7 kts | 256° |
| 2026-04-20 23:18 | 35.04604 | -106.61532 | 5337 ft | 10 kts | 232° |
| 2026-04-20 23:18 | 35.04563 | -106.61613 | 5337 ft | 12 kts | 252° |
| 2026-04-20 23:18 | 35.04556 | -106.61722 | 5336 ft | 14 kts | 270° |
| 2026-04-20 23:18 | 35.04557 | -106.61864 | 5333 ft | 18 kts | 270° |
| 2026-04-20 23:19 | 35.04557 | -106.62028 | 5329 ft | 20 kts | 270° |
| 2026-04-20 23:19 | 35.04557 | -106.62115 | 5326 ft | 9 kts | 270° |
| 2026-04-20 23:19 | 35.04554 | -106.62139 | 5325 ft | 0 kts | 218° |
| 2026-04-20 23:19 | 35.04535 | -106.62142 | 5325 ft | 0 kts | 179° |
| 2026-04-20 23:20 | 35.04534 | -106.62142 | 5325 ft | 0 kts | 179° |
| 2026-04-20 23:25 | 35.04512 | -106.62142 | 5324 ft | 11 kts | 179° |
| 2026-04-20 23:25 | 35.04442 | -106.62103 | 5326 ft | 10 kts | 116° |
| 2026-04-20 23:25 | 35.04433 | -106.62031 | 5329 ft | 9 kts | 90° |
| 2026-04-20 23:25 | 35.04431 | -106.61690 | 5336 ft | 79 kts | 90° |
| 2026-04-20 23:26 | 35.04426 | -106.60689 | 5341 ft | 152 kts | 90° |
| 2026-04-20 23:26 | 35.04422 | -106.59219 | 5621 ft | 188 kts | 90° |
| 2026-04-20 23:26 | 35.04420 | -106.57565 | 6397 ft | 199 kts | 90° |
| 2026-04-20 23:26 | 35.04517 | -106.55952 | 7249 ft | 200 kts | 72° |
| 2026-04-20 23:27 | 35.05324 | -106.54535 | 7817 ft | 212 kts | 43° |
| 2026-04-20 23:27 | 35.06400 | -106.53249 | 8406 ft | 225 kts | 49° |
| 2026-04-20 23:27 | 35.07319 | -106.51653 | 8928 ft | 241 kts | 59° |
| 2026-04-20 23:27 | 35.08150 | -106.49781 | 9416 ft | 262 kts | 63° |
| 2026-04-20 23:28 | 35.08997 | -106.47751 | 10107 ft | 276 kts | 63° |
| 2026-04-20 23:28 | 35.09889 | -106.45633 | 10868 ft | 287 kts | 63° |
| 2026-04-20 23:28 | 35.10827 | -106.43438 | 11624 ft | 299 kts | 62° |
| 2026-04-20 23:28 | 35.11816 | -106.41149 | 12280 ft | 314 kts | 62° |
| 2026-04-20 23:29 | 35.12860 | -106.38739 | 12969 ft | 327 kts | 62° |
| 2026-04-20 23:29 | 35.13837 | -106.36479 | 13538 ft | 341 kts | 62° |
| 2026-04-20 23:29 | 35.14691 | -106.34502 | 14089 ft | 350 kts | 62° |
| 2026-04-20 23:29 | 35.15842 | -106.31838 | 14923 ft | 358 kts | 63° |
| 2026-04-20 23:30 | 35.17003 | -106.29147 | 15817 ft | 363 kts | 63° |
| 2026-04-20 23:30 | 35.18166 | -106.26447 | 16720 ft | 367 kts | 63° |
| 2026-04-20 23:30 | 35.19361 | -106.23672 | 17587 ft | 372 kts | 63° |
| 2026-04-20 23:30 | 35.20569 | -106.20861 | 18445 ft | 376 kts | 63° |
| 2026-04-20 23:31 | 35.21779 | -106.18039 | 19156 ft | 384 kts | 62° |
| 2026-04-20 23:31 | 35.23035 | -106.15112 | 19833 ft | 392 kts | 62° |
| 2026-04-20 23:31 | 35.24309 | -106.12149 | 20620 ft | 397 kts | 62° |
| 2026-04-20 23:31 | 35.25595 | -106.09154 | 21374 ft | 402 kts | 62° |
| 2026-04-20 23:32 | 35.26902 | -106.06107 | 22109 ft | 406 kts | 62° |
| 2026-04-20 23:32 | 35.28202 | -106.03072 | 22899 ft | 409 kts | 62° |
| 2026-04-20 23:32 | 35.29528 | -105.99972 | 23595 ft | 414 kts | 61° |
| 2026-04-20 23:32 | 35.30855 | -105.96870 | 24329 ft | 417 kts | 61° |
| 2026-04-20 23:33 | 35.32204 | -105.93707 | 25037 ft | 421 kts | 61° |
| 2026-04-20 23:33 | 35.33561 | -105.90521 | 25750 ft | 423 kts | 61° |
| 2026-04-20 23:33 | 35.34923 | -105.87322 | 26443 ft | 426 kts | 61° |
| 2026-04-20 23:33 | 35.36279 | -105.84132 | 27060 ft | 429 kts | 61° |
| 2026-04-20 23:34 | 35.37671 | -105.80855 | 27692 ft | 432 kts | 61° |
| 2026-04-20 23:34 | 35.39054 | -105.77595 | 28310 ft | 435 kts | 61° |
| 2026-04-20 23:34 | 35.40445 | -105.74316 | 28904 ft | 438 kts | 61° |
| 2026-04-20 23:34 | 35.41857 | -105.70981 | 29578 ft | 440 kts | 61° |
| 2026-04-20 23:35 | 35.43263 | -105.67660 | 30098 ft | 444 kts | 61° |
| 2026-04-20 23:35 | 35.46114 | -105.60918 | 31181 ft | 448 kts | 61° |
| 2026-04-20 23:35 | 35.47539 | -105.57542 | 31952 ft | 444 kts | 61° |
| 2026-04-20 23:36 | 35.48934 | -105.54231 | 32728 ft | 440 kts | 61° |
| 2026-04-20 23:36 | 35.50327 | -105.50921 | 33422 ft | 437 kts | 61° |
| 2026-04-20 23:36 | 35.51722 | -105.47600 | 33967 ft | 436 kts | 61° |
| 2026-04-20 23:36 | 35.53091 | -105.44340 | 34416 ft | 437 kts | 61° |
| 2026-04-20 23:37 | 35.54496 | -105.40990 | 34792 ft | 439 kts | 61° |
| 2026-04-20 23:37 | 35.55889 | -105.37668 | 35102 ft | 443 kts | 61° |
| 2026-04-20 23:37 | 35.57293 | -105.34317 | 35457 ft | 444 kts | 62° |
| 2026-04-20 23:37 | 35.58722 | -105.30904 | 35770 ft | 447 kts | 62° |
| 2026-04-20 23:38 | 35.60126 | -105.27546 | 36153 ft | 449 kts | 62° |
| 2026-04-20 23:38 | 35.61556 | -105.24129 | 36496 ft | 451 kts | 62° |
| 2026-04-20 23:38 | 35.62978 | -105.20725 | 36826 ft | 452 kts | 62° |
| 2026-04-20 23:38 | 35.64391 | -105.17260 | 37108 ft | 455 kts | 64° |
| 2026-04-20 23:39 | 35.65568 | -105.13656 | 37283 ft | 459 kts | 71° |
| 2026-04-20 23:39 | 35.67058 | -105.06034 | 37285 ft | 457 kts | 80° |
| 2026-04-20 23:40 | 35.68098 | -104.98322 | 37268 ft | 458 kts | 80° |
| 2026-04-20 23:40 | 35.69126 | -104.90629 | 37273 ft | 457 kts | 80° |
| 2026-04-20 23:41 | 35.70174 | -104.82953 | 37269 ft | 457 kts | 80° |
| 2026-04-20 23:41 | 35.71248 | -104.75219 | 37266 ft | 459 kts | 79° |
| 2026-04-20 23:42 | 35.72318 | -104.67557 | 37265 ft | 457 kts | 79° |
| 2026-04-20 23:42 | 35.73392 | -104.59864 | 37257 ft | 458 kts | 80° |
| 2026-04-20 23:43 | 35.74469 | -104.52129 | 37239 ft | 459 kts | 80° |
| 2026-04-20 23:43 | 35.75530 | -104.44469 | 37238 ft | 457 kts | 80° |
| 2026-04-20 23:44 | 35.76594 | -104.36755 | 37225 ft | 460 kts | 80° |
| 2026-04-20 23:44 | 35.77655 | -104.29027 | 37227 ft | 460 kts | 81° |
| 2026-04-20 23:45 | 35.78710 | -104.21301 | 37221 ft | 459 kts | 81° |
| 2026-04-20 23:45 | 35.79763 | -104.13557 | 37213 ft | 459 kts | 81° |
| 2026-04-20 23:46 | 35.80810 | -104.05811 | 37200 ft | 459 kts | 81° |
| 2026-04-20 23:46 | 35.81847 | -103.98104 | 37196 ft | 459 kts | 81° |
| 2026-04-20 23:47 | 35.82885 | -103.90353 | 37197 ft | 460 kts | 81° |
| 2026-04-20 23:47 | 35.83911 | -103.82647 | 37190 ft | 460 kts | 81° |
| 2026-04-20 23:48 | 35.84937 | -103.74899 | 37178 ft | 459 kts | 81° |
| 2026-04-20 23:48 | 35.85968 | -103.67080 | 37171 ft | 462 kts | 81° |
| 2026-04-20 23:49 | 35.86987 | -103.59308 | 37178 ft | 461 kts | 81° |
| 2026-04-20 23:49 | 35.88000 | -103.51549 | 37184 ft | 462 kts | 81° |
| 2026-04-20 23:50 | 35.89016 | -103.43722 | 37183 ft | 463 kts | 81° |
| 2026-04-20 23:50 | 35.90025 | -103.35922 | 37173 ft | 462 kts | 81° |
| 2026-04-20 23:51 | 35.91030 | -103.28097 | 37169 ft | 461 kts | 81° |
| 2026-04-20 23:51 | 35.92029 | -103.20277 | 37164 ft | 461 kts | 82° |
| 2026-04-20 23:52 | 35.93021 | -103.12466 | 37159 ft | 463 kts | 82° |
| 2026-04-20 23:52 | 35.94012 | -103.04625 | 37165 ft | 465 kts | 82° |
| 2026-04-20 23:53 | 35.94997 | -102.96790 | 37164 ft | 464 kts | 82° |
| 2026-04-20 23:53 | 35.95982 | -102.88915 | 37158 ft | 465 kts | 81° |
| 2026-04-20 23:54 | 35.96957 | -102.81070 | 37146 ft | 462 kts | 81° |
| 2026-04-20 23:54 | 35.97925 | -102.73254 | 37138 ft | 464 kts | 81° |
| 2026-04-20 23:55 | 35.98886 | -102.65445 | 37142 ft | 462 kts | 81° |
| 2026-04-20 23:55 | 35.99847 | -102.57588 | 37163 ft | 464 kts | 81° |
| 2026-04-20 23:56 | 36.00803 | -102.49721 | 37162 ft | 464 kts | 81° |
| 2026-04-20 23:56 | 36.01753 | -102.41869 | 37154 ft | 465 kts | 81° |
| 2026-04-20 23:57 | 36.02707 | -102.33938 | 37145 ft | 466 kts | 82° |
| 2026-04-20 23:57 | 36.03649 | -102.26070 | 37164 ft | 466 kts | 82° |
| 2026-04-20 23:58 | 36.04578 | -102.18263 | 37144 ft | 466 kts | 82° |
| 2026-04-20 23:58 | 36.05501 | -102.10454 | 37161 ft | 468 kts | 82° |
| 2026-04-20 23:59 | 36.06433 | -102.02522 | 37161 ft | 466 kts | 82° |
| 2026-04-20 23:59 | 36.07356 | -101.94619 | 37139 ft | 465 kts | 82° |
| 2026-04-21 00:00 | 36.08277 | -101.86693 | 37129 ft | 467 kts | 82° |
| 2026-04-21 00:00 | 36.09186 | -101.78822 | 37140 ft | 466 kts | 82° |
| 2026-04-21 00:01 | 36.10102 | -101.70841 | 37125 ft | 466 kts | 82° |
| 2026-04-21 00:01 | 36.11006 | -101.62933 | 37136 ft | 468 kts | 82° |
| 2026-04-21 00:02 | 36.11911 | -101.54962 | 37117 ft | 468 kts | 82° |
| 2026-04-21 00:02 | 36.12804 | -101.47038 | 37119 ft | 469 kts | 82° |
| 2026-04-21 00:03 | 36.13696 | -101.39078 | 37128 ft | 470 kts | 82° |
| 2026-04-21 00:03 | 36.14588 | -101.31070 | 37130 ft | 470 kts | 83° |
| 2026-04-21 00:04 | 36.15472 | -101.23086 | 37117 ft | 470 kts | 83° |
| 2026-04-21 00:04 | 36.16350 | -101.15112 | 37116 ft | 471 kts | 83° |
| 2026-04-21 00:05 | 36.17223 | -101.07120 | 37117 ft | 471 kts | 83° |
| 2026-04-21 00:05 | 36.18097 | -100.99079 | 37125 ft | 471 kts | 83° |
| 2026-04-21 00:06 | 36.18960 | -100.91080 | 37125 ft | 472 kts | 83° |
| 2026-04-21 00:06 | 36.19820 | -100.83068 | 37101 ft | 470 kts | 83° |
| 2026-04-21 00:07 | 36.20672 | -100.75070 | 37106 ft | 472 kts | 83° |
| 2026-04-21 00:07 | 36.21520 | -100.67073 | 37101 ft | 469 kts | 83° |
| 2026-04-21 00:08 | 36.22364 | -100.59042 | 37095 ft | 470 kts | 83° |
| 2026-04-21 00:08 | 36.23201 | -100.51041 | 37119 ft | 469 kts | 83° |
| 2026-04-21 00:09 | 36.24029 | -100.43061 | 37123 ft | 471 kts | 83° |
| 2026-04-21 00:09 | 36.24855 | -100.35049 | 37118 ft | 472 kts | 83° |
| 2026-04-21 00:10 | 36.25678 | -100.27013 | 37116 ft | 470 kts | 83° |
| 2026-04-21 00:10 | 36.26493 | -100.19006 | 37100 ft | 469 kts | 83° |
| 2026-04-21 00:11 | 36.27301 | -100.11006 | 37107 ft | 469 kts | 83° |
| 2026-04-21 00:11 | 36.28106 | -100.02995 | 37106 ft | 469 kts | 83° |
| 2026-04-21 00:12 | 36.28901 | -99.95031 | 37109 ft | 469 kts | 83° |
| 2026-04-21 00:12 | 36.29694 | -99.87019 | 37112 ft | 468 kts | 83° |
| 2026-04-21 00:13 | 36.30481 | -99.79020 | 37116 ft | 470 kts | 83° |
| 2026-04-21 00:13 | 36.31261 | -99.71024 | 37126 ft | 470 kts | 83° |
| 2026-04-21 00:14 | 36.32041 | -99.62987 | 37108 ft | 469 kts | 83° |
| 2026-04-21 00:14 | 36.32809 | -99.55003 | 37116 ft | 469 kts | 83° |
| 2026-04-21 00:15 | 36.33576 | -99.46986 | 37120 ft | 469 kts | 83° |
| 2026-04-21 00:15 | 36.34338 | -99.38955 | 37105 ft | 470 kts | 83° |
| 2026-04-21 00:16 | 36.35099 | -99.30888 | 37098 ft | 470 kts | 83° |
| 2026-04-21 00:16 | 36.35844 | -99.22920 | 37106 ft | 471 kts | 84° |
| 2026-04-21 00:17 | 36.36594 | -99.14841 | 37095 ft | 469 kts | 84° |
| 2026-04-21 00:17 | 36.37328 | -99.06878 | 37102 ft | 470 kts | 84° |
| 2026-04-21 00:18 | 36.38065 | -98.98814 | 37103 ft | 471 kts | 84° |
| 2026-04-21 00:18 | 36.38797 | -98.90743 | 37104 ft | 471 kts | 83° |
| 2026-04-21 00:19 | 36.39518 | -98.82751 | 37101 ft | 470 kts | 84° |
| 2026-04-21 00:19 | 36.40240 | -98.74680 | 37103 ft | 471 kts | 84° |
| 2026-04-21 00:20 | 36.40953 | -98.66650 | 37095 ft | 470 kts | 83° |
| 2026-04-21 00:20 | 36.41665 | -98.58571 | 37096 ft | 471 kts | 84° |
| 2026-04-21 00:21 | 36.42368 | -98.50518 | 37121 ft | 473 kts | 83° |
| 2026-04-21 00:21 | 36.43067 | -98.42460 | 37105 ft | 469 kts | 84° |
| 2026-04-21 00:22 | 36.43760 | -98.34391 | 37103 ft | 471 kts | 84° |
| 2026-04-21 00:22 | 36.44449 | -98.26313 | 37115 ft | 472 kts | 84° |
| 2026-04-21 00:23 | 36.45104 | -98.18572 | 37123 ft | 471 kts | 84° |
| 2026-04-21 00:23 | 36.45801 | -98.10272 | 37119 ft | 471 kts | 84° |
| 2026-04-21 00:24 | 36.46470 | -98.02227 | 37132 ft | 472 kts | 84° |
| 2026-04-21 00:24 | 36.47137 | -97.94151 | 37135 ft | 471 kts | 84° |
| 2026-04-21 00:25 | 36.47795 | -97.86105 | 37138 ft | 471 kts | 84° |
| 2026-04-21 00:25 | 36.48449 | -97.78046 | 37140 ft | 471 kts | 84° |
| 2026-04-21 00:26 | 36.49100 | -97.69953 | 37142 ft | 471 kts | 84° |
| 2026-04-21 00:26 | 36.49742 | -97.61901 | 37139 ft | 470 kts | 84° |
| 2026-04-21 00:27 | 36.50379 | -97.53854 | 37138 ft | 472 kts | 84° |
| 2026-04-21 00:27 | 36.51017 | -97.45721 | 37143 ft | 471 kts | 84° |
| 2026-04-21 00:28 | 36.51641 | -97.37685 | 37144 ft | 470 kts | 84° |
| 2026-04-21 00:28 | 36.52268 | -97.29552 | 37149 ft | 472 kts | 84° |
| 2026-04-21 00:29 | 36.52883 | -97.21497 | 37154 ft | 471 kts | 84° |
| 2026-04-21 00:29 | 36.53497 | -97.13387 | 36695 ft | 470 kts | 84° |
| 2026-04-21 00:29 | 36.53801 | -97.09348 | 36101 ft | 468 kts | 84° |
| 2026-04-21 00:30 | 36.54100 | -97.05364 | 35532 ft | 466 kts | 84° |
| 2026-04-21 00:30 | 36.54400 | -97.01335 | 34882 ft | 468 kts | 85° |
| 2026-04-21 00:30 | 36.54698 | -96.97324 | 34154 ft | 472 kts | 85° |
| 2026-04-21 00:30 | 36.54997 | -96.93282 | 33497 ft | 470 kts | 85° |
| 2026-04-21 00:31 | 36.55293 | -96.89243 | 32944 ft | 466 kts | 84° |
| 2026-04-21 00:31 | 36.55580 | -96.85309 | 32385 ft | 462 kts | 84° |
| 2026-04-21 00:31 | 36.55870 | -96.81322 | 31805 ft | 459 kts | 84° |
| 2026-04-21 00:31 | 36.56153 | -96.77401 | 31248 ft | 455 kts | 84° |
| 2026-04-21 00:32 | 36.56431 | -96.73546 | 30690 ft | 452 kts | 84° |
| 2026-04-21 00:32 | 36.56711 | -96.69641 | 30117 ft | 448 kts | 84° |
| 2026-04-21 00:32 | 36.56985 | -96.65802 | 29550 ft | 445 kts | 84° |
| 2026-04-21 00:32 | 36.57255 | -96.62012 | 28989 ft | 442 kts | 84° |
| 2026-04-21 00:33 | 36.57524 | -96.58218 | 28440 ft | 438 kts | 84° |
| 2026-04-21 00:33 | 36.57786 | -96.54504 | 27896 ft | 434 kts | 84° |
| 2026-04-21 00:33 | 36.58046 | -96.50803 | 27346 ft | 431 kts | 84° |
| 2026-04-21 00:33 | 36.58303 | -96.47127 | 26780 ft | 418 kts | 84° |
| 2026-04-21 00:34 | 36.58549 | -96.43586 | 26292 ft | 402 kts | 84° |
| 2026-04-21 00:34 | 36.58782 | -96.40220 | 25795 ft | 389 kts | 84° |
| 2026-04-21 00:34 | 36.59009 | -96.36935 | 25309 ft | 376 kts | 84° |
| 2026-04-21 00:34 | 36.59229 | -96.33731 | 24847 ft | 371 kts | 85° |
| 2026-04-21 00:35 | 36.59453 | -96.30467 | 24359 ft | 389 kts | 85° |
| 2026-04-21 00:35 | 36.59683 | -96.27099 | 23835 ft | 388 kts | 85° |
| 2026-04-21 00:35 | 36.59906 | -96.23823 | 23337 ft | 376 kts | 85° |
| 2026-04-21 00:35 | 36.60121 | -96.20651 | 22864 ft | 363 kts | 85° |
| 2026-04-21 00:36 | 36.60326 | -96.17594 | 22415 ft | 357 kts | 85° |
| 2026-04-21 00:36 | 36.60537 | -96.14450 | 21950 ft | 374 kts | 85° |
| 2026-04-21 00:36 | 36.60751 | -96.11232 | 21451 ft | 371 kts | 85° |
| 2026-04-21 00:36 | 36.60962 | -96.08067 | 20968 ft | 358 kts | 85° |
| 2026-04-21 00:37 | 36.61161 | -96.05065 | 20515 ft | 345 kts | 85° |
| 2026-04-21 00:37 | 36.61356 | -96.02110 | 20086 ft | 342 kts | 85° |
| 2026-04-21 00:37 | 36.61554 | -95.99111 | 19629 ft | 357 kts | 85° |
| 2026-04-21 00:37 | 36.61755 | -95.96043 | 19164 ft | 355 kts | 85° |
| 2026-04-21 00:38 | 36.61953 | -95.93005 | 18702 ft | 352 kts | 85° |
| 2026-04-21 00:38 | 36.62147 | -95.90020 | 18415 ft | 343 kts | 85° |
| 2026-04-21 00:38 | 36.62336 | -95.87086 | 18207 ft | 333 kts | 85° |
| 2026-04-21 00:38 | 36.62517 | -95.84272 | 18104 ft | 323 kts | 85° |
| 2026-04-21 00:39 | 36.62696 | -95.81485 | 17672 ft | 328 kts | 85° |
| 2026-04-21 00:39 | 36.62875 | -95.78671 | 17042 ft | 333 kts | 85° |
| 2026-04-21 00:39 | 36.63059 | -95.75793 | 16535 ft | 333 kts | 85° |
| 2026-04-21 00:39 | 36.63242 | -95.72922 | 16079 ft | 332 kts | 85° |
| 2026-04-21 00:40 | 36.63422 | -95.70071 | 15633 ft | 330 kts | 85° |
| 2026-04-21 00:40 | 36.63601 | -95.67240 | 15198 ft | 328 kts | 85° |
| 2026-04-21 00:40 | 36.63777 | -95.64436 | 14757 ft | 326 kts | 85° |
| 2026-04-21 00:40 | 36.63952 | -95.61635 | 14320 ft | 325 kts | 85° |
| 2026-04-21 00:41 | 36.64126 | -95.58847 | 13889 ft | 323 kts | 85° |
| 2026-04-21 00:41 | 36.64299 | -95.56071 | 13453 ft | 321 kts | 85° |
| 2026-04-21 00:41 | 36.64470 | -95.53305 | 13022 ft | 320 kts | 85° |
| 2026-04-21 00:41 | 36.64640 | -95.50558 | 12583 ft | 318 kts | 85° |
| 2026-04-21 00:42 | 36.64804 | -95.47883 | 12160 ft | 307 kts | 85° |
| 2026-04-21 00:42 | 36.64962 | -95.45299 | 11763 ft | 297 kts | 85° |
| 2026-04-21 00:42 | 36.65118 | -95.42741 | 11328 ft | 292 kts | 85° |
| 2026-04-21 00:42 | 36.65269 | -95.40263 | 10741 ft | 290 kts | 85° |
| 2026-04-21 00:43 | 36.65420 | -95.37766 | 10092 ft | 290 kts | 85° |
| 2026-04-21 00:43 | 36.65570 | -95.35273 | 9498 ft | 288 kts | 85° |
| 2026-04-21 00:43 | 36.65720 | -95.32794 | 8924 ft | 285 kts | 87° |
| 2026-04-21 00:43 | 36.65868 | -95.30335 | 8315 ft | 284 kts | 88° |
| 2026-04-21 00:44 | 36.65942 | -95.27931 | 7720 ft | 282 kts | 96° |
| 2026-04-21 00:44 | 36.65504 | -95.25590 | 7154 ft | 273 kts | 121° |
| 2026-04-21 00:44 | 36.64381 | -95.23802 | 6604 ft | 261 kts | 147° |
| 2026-04-21 00:45 | 36.61205 | -95.23162 | 6011 ft | 221 kts | 205° |
| 2026-04-21 00:45 | 36.60050 | -95.24318 | 5990 ft | 213 kts | 228° |
| 2026-04-21 00:45 | 36.59138 | -95.25773 | 5991 ft | 212 kts | 231° |
| 2026-04-21 00:45 | 36.58270 | -95.27191 | 5844 ft | 205 kts | 231° |
| 2026-04-21 00:46 | 36.57410 | -95.28597 | 5397 ft | 207 kts | 231° |
| 2026-04-21 00:46 | 36.56536 | -95.30035 | 5022 ft | 204 kts | 231° |
| 2026-04-21 00:46 | 36.55692 | -95.31443 | 4987 ft | 206 kts | 232° |
| 2026-04-21 00:46 | 36.54858 | -95.32916 | 4991 ft | 206 kts | 230° |
| 2026-04-21 00:47 | 36.53950 | -95.34271 | 4992 ft | 207 kts | 227° |
| 2026-04-21 00:47 | 36.53014 | -95.35637 | 4991 ft | 206 kts | 228° |
| 2026-04-21 00:47 | 36.52095 | -95.37031 | 4993 ft | 206 kts | 229° |
| 2026-04-21 00:47 | 36.51190 | -95.38438 | 4995 ft | 207 kts | 229° |
| 2026-04-21 00:48 | 36.50293 | -95.39837 | 4992 ft | 208 kts | 229° |
| 2026-04-21 00:48 | 36.49393 | -95.41241 | 4993 ft | 206 kts | 229° |
| 2026-04-21 00:48 | 36.48495 | -95.42638 | 4993 ft | 206 kts | 229° |
| 2026-04-21 00:48 | 36.47597 | -95.44035 | 4990 ft | 206 kts | 229° |
| 2026-04-21 00:49 | 36.46724 | -95.45396 | 4760 ft | 201 kts | 229° |
| 2026-04-21 00:49 | 36.45851 | -95.46752 | 4323 ft | 202 kts | 229° |
| 2026-04-21 00:49 | 36.44977 | -95.48109 | 3871 ft | 204 kts | 229° |
| 2026-04-21 00:49 | 36.44126 | -95.49516 | 3464 ft | 204 kts | 234° |
| 2026-04-21 00:50 | 36.43618 | -95.51175 | 3057 ft | 209 kts | 253° |
| 2026-04-21 00:50 | 36.43393 | -95.52954 | 2733 ft | 206 kts | 256° |
| 2026-04-21 00:50 | 36.43171 | -95.54655 | 2578 ft | 193 kts | 254° |
| 2026-04-21 00:50 | 36.42937 | -95.56179 | 2567 ft | 184 kts | 253° |
| 2026-04-21 00:51 | 36.42677 | -95.57747 | 2575 ft | 185 kts | 252° |
| 2026-04-21 00:51 | 36.42422 | -95.59305 | 2574 ft | 186 kts | 252° |
| 2026-04-21 00:51 | 36.42168 | -95.60873 | 2574 ft | 186 kts | 252° |
| 2026-04-21 00:51 | 36.41909 | -95.62450 | 2571 ft | 186 kts | 252° |
| 2026-04-21 00:52 | 36.41651 | -95.64024 | 2567 ft | 185 kts | 252° |
| 2026-04-21 00:52 | 36.41394 | -95.65595 | 2569 ft | 185 kts | 252° |
| 2026-04-21 00:52 | 36.41137 | -95.67168 | 2571 ft | 187 kts | 252° |
| 2026-04-21 00:52 | 36.40881 | -95.68730 | 2564 ft | 183 kts | 251° |
| 2026-04-21 00:53 | 36.40624 | -95.70286 | 2562 ft | 186 kts | 252° |
| 2026-04-21 00:53 | 36.40363 | -95.71866 | 2562 ft | 186 kts | 252° |
| 2026-04-21 00:53 | 36.40108 | -95.73429 | 2562 ft | 184 kts | 252° |
| 2026-04-21 00:53 | 36.39853 | -95.74992 | 2561 ft | 185 kts | 252° |
| 2026-04-21 00:54 | 36.39593 | -95.76566 | 2563 ft | 186 kts | 252° |
| 2026-04-21 00:54 | 36.39333 | -95.78144 | 2567 ft | 186 kts | 252° |
| 2026-04-21 00:54 | 36.39076 | -95.79710 | 2563 ft | 185 kts | 252° |
| 2026-04-21 00:54 | 36.38819 | -95.81271 | 2562 ft | 185 kts | 251° |
| 2026-04-21 00:55 | 36.38569 | -95.82790 | 2581 ft | 176 kts | 251° |
| 2026-04-21 00:55 | 36.38321 | -95.84290 | 2579 ft | 174 kts | 251° |
| 2026-04-21 00:55 | 36.37990 | -95.85699 | 2570 ft | 171 kts | 237° |
| 2026-04-21 00:55 | 36.37253 | -95.86708 | 2539 ft | 144 kts | 208° |
| 2026-04-21 00:56 | 36.36414 | -95.87151 | 2552 ft | 126 kts | 198° |
| 2026-04-21 00:56 | 36.35555 | -95.87328 | 2506 ft | 120 kts | 182° |
| 2026-04-21 00:56 | 36.34722 | -95.87281 | 2359 ft | 122 kts | 181° |
| 2026-04-21 00:56 | 36.33897 | -95.87251 | 2253 ft | 119 kts | 182° |
| 2026-04-21 00:57 | 36.33237 | -95.87254 | 2141 ft | 120 kts | 186° |
| 2026-04-21 00:57 | 36.32413 | -95.87344 | 2013 ft | 119 kts | 186° |
| 2026-04-21 00:57 | 36.31590 | -95.87403 | 1930 ft | 115 kts | 186° |
| 2026-04-21 00:58 | 36.30799 | -95.87473 | 1860 ft | 112 kts | 186° |
| 2026-04-21 00:58 | 36.30025 | -95.87528 | 1749 ft | 114 kts | 184° |
| 2026-04-21 00:58 | 36.29237 | -95.87575 | 1658 ft | 114 kts | 187° |
| 2026-04-21 00:58 | 36.28462 | -95.87646 | 1614 ft | 110 kts | 185° |
| 2026-04-21 00:59 | 36.27679 | -95.87694 | 1484 ft | 113 kts | 184° |
| 2026-04-21 00:59 | 36.26902 | -95.87717 | 1443 ft | 110 kts | 184° |
| 2026-04-21 00:59 | 36.26141 | -95.87776 | 1362 ft | 106 kts | 185° |
| 2026-04-21 00:59 | 36.25379 | -95.87844 | 1182 ft | 115 kts | 186° |
| 2026-04-21 01:00 | 36.24571 | -95.87928 | 1121 ft | 113 kts | 185° |
| 2026-04-21 01:00 | 36.23778 | -95.87981 | 1047 ft | 114 kts | 184° |
| 2026-04-21 01:00 | 36.22978 | -95.88028 | 921 ft | 119 kts | 184° |
| 2026-04-21 01:00 | 36.22142 | -95.88089 | 779 ft | 121 kts | 184° |
| 2026-04-21 01:01 | 36.21318 | -95.88142 | 633 ft | 116 kts | 183° |
| 2026-04-21 01:01 | 36.20686 | -95.88181 | 633 ft | 53 kts | 183° |
| 2026-04-21 01:01 | 36.20385 | -95.88203 | 641 ft | 42 kts | 182° |
| 2026-04-21 01:01 | 36.20104 | -95.88222 | 646 ft | 40 kts | 183° |
| 2026-04-21 01:02 | 36.19877 | -95.88236 | 650 ft | 28 kts | 182° |
| 2026-04-21 01:02 | 36.19726 | -95.88292 | 651 ft | 9 kts | 251° |
| 2026-04-21 01:02 | 36.19720 | -95.88430 | 652 ft | 12 kts | 269° |
| 2026-04-21 01:02 | 36.19717 | -95.88551 | 651 ft | 16 kts | 258° |
| 2026-04-21 01:03 | 36.19617 | -95.88589 | 651 ft | 16 kts | 179° |
| 2026-04-21 01:03 | 36.19494 | -95.88588 | 653 ft | 17 kts | 180° |
| 2026-04-21 01:03 | 36.19378 | -95.88605 | 653 ft | 15 kts | 210° |
| 2026-04-21 01:03 | 36.19292 | -95.88660 | 654 ft | 12 kts | 181° |
| 2026-04-21 01:04 | 36.19214 | -95.88631 | 655 ft | 11 kts | 156° |
| 2026-04-21 01:04 | 36.19144 | -95.88586 | 655 ft | 11 kts | 150° |
| 2026-04-21 01:04 | 36.19072 | -95.88588 | 655 ft | 10 kts | 217° |
| 2026-04-21 01:04 | 36.19041 | -95.88618 | 655 ft | 0 kts | 219° |
| 2026-04-21 01:05 | 36.19035 | -95.88624 | 655 ft | 2 kts | 212° |
| 2026-04-21 01:05 | 36.19022 | -95.88633 | 656 ft | 2 kts | 215° |
| 2026-04-21 01:05 | 36.19019 | -95.88642 | 656 ft | 1 kts | 249° |
| 2026-04-21 01:05 | 36.19019 | -95.88650 | 656 ft | 0 kts | 281° |
| 2026-04-21 01:06 | 36.19022 | -95.88658 | 656 ft | 1 kts | 305° |
| 2026-04-21 01:06 | 36.19032 | -95.88670 | 656 ft | 1 kts | 318° |
| 2026-04-21 01:06 | 36.19044 | -95.88683 | 656 ft | 2 kts | 319° |
| 2026-04-21 01:06 | 36.19047 | -95.88686 | 656 ft | 0 kts | 319° |